Latest Weather Observations for Walpole North

IDW60801

Issued at 6:23 am WST Saturday 24 August 2019 (issued every 10 minutes, with the page automatically refreshed every 10 minutes)

About weather observations | Map of weather stations | Latest weather observations for WA | Other Formats
Station Details ID: 009998 Name: NORTH WALPOLE Lat: -34.95 Lon: 116.72 Height: 73.0 m
Data from the previous 72 hours. | See also: Recent months at Walpole North
Date/Time
WST
Temp
°C
App
Temp
°C
Dew
Point
°C
Rel
Hum
%
Delta-T
°C
Wind Press
QNH
hPa
Press
MSL
hPa
Rain since
9am
mm
Dir  Spd
km/h
Gust
km/h
Spd
kts
Gust
kts
24/06:00am 8.3 6.7 8.2 99 0.0 NE 6 7 3 4 1027.2 1027.2 5.0
24/05:30am 8.5 7.8 8.4 99 0.0 NE 2 7 1 4 1027.1 1027.1 5.0
24/05:00am 8.6 7.1 8.5 99 0.0 NE 6 7 3 4 1027.0 1027.0 5.0
24/04:30am 8.8 7.1 7.6 92 0.6 NE 6 7 3 4 1026.8 1026.8 5.0
24/04:00am 9.1 7.3 7.1 87 0.9 SW 6 7 3 4 1026.5 1026.5 5.0
24/03:30am 9.1 8.4 6.9 86 1.0 CALM 0 6 0 3 1026.5 1026.5 5.0
24/03:00am 9.4 7.5 6.7 83 1.3 SW 6 7 3 4 1026.6 1026.6 5.0
24/02:30am 9.5 7.3 6.2 80 1.5 SSE 7 13 4 7 1026.5 1026.5 5.0
24/02:00am 9.9 7.7 6.1 77 1.8 SE 7 20 4 11 1026.4 1026.4 5.0
24/01:30am 9.2 7.8 7.2 87 0.9 ENE 4 9 2 5 1026.5 1026.5 5.0
24/01:00am 8.8 6.9 6.9 88 0.9 NE 6 9 3 5 1026.3 1026.3 5.0
24/12:30am 9.3 7.2 5.9 79 1.6 W 6 7 3 4 1026.3 1026.3 5.0
24/12:00am 9.1 7.0 6.0 81 1.4 W 6 6 3 3 1026.1 1026.1 5.0
 
Date/Time
WST
Temp
°C
App
Temp
°C
Dew
Point
°C
Rel
Hum
%
Delta-T
°C
Wind Press
QNH
hPa
Press
MSL
hPa
Rain since
9am
mm
Dir  Spd
km/h
Gust
km/h
Spd
kts
Gust
kts
23/11:30pm 9.3 7.3 6.4 82 1.3 W 6 9 3 5 1026.0 1026.0 5.0
23/11:00pm 9.3 8.1 6.6 83 1.3 W 2 7 1 4 1026.1 1026.1 5.0
23/10:30pm 9.6 7.9 5.8 77 1.7 SSW 4 7 2 4 1026.0 1026.0 5.0
23/10:00pm 9.8 7.6 5.2 73 2.1 SW 6 9 3 5 1025.9 1025.9 5.0
23/09:30pm 9.7 7.6 5.9 77 1.8 SW 6 9 3 5 1025.7 1025.7 5.0
23/09:00pm 10.0 7.3 5.4 73 2.1 SW 9 13 5 7 1025.6 1025.6 5.0
23/08:30pm 10.0 7.4 6.0 76 1.9 SW 9 19 5 10 1025.5 1025.5 5.0
23/08:00pm 10.5 7.3 4.9 68 2.5 SSE 11 20 6 11 1025.2 1025.2 5.0
23/07:30pm 10.0 7.4 6.2 77 1.8 SW 9 13 5 7 1024.8 1024.8 5.0
23/07:00pm 10.2 7.6 6.0 75 1.9 SSW 9 20 5 11 1024.5 1024.5 5.0
23/06:30pm 9.6 8.2 7.2 85 1.1 SE 4 13 2 7 1024.0 1024.0 5.0
23/06:00pm 9.8 7.6 6.0 77 1.7 SSW 7 13 4 7 1023.5 1023.5 5.0
23/05:30pm 10.0 5.9 6.2 77 1.8 SSW 17 28 9 15 1023.1 1023.1 5.0
23/05:00pm 10.0 7.6 7.1 82 1.4 S 9 19 5 10 1023.0 1023.0 5.0
23/04:30pm 10.1 6.1 6.8 80 1.6 SSW 17 30 9 16 1022.8 1022.8 4.8
23/04:00pm 10.3 6.6 7.9 85 1.2 SSE 17 32 9 17 1022.2 1022.2 4.8
23/03:30pm 9.4 6.9 8.0 91 0.7 SSW 11 26 6 14 1021.7 1021.7 4.6
23/03:00pm 10.3 4.3 7.2 81 1.5 SSW 28 43 15 23 1021.5 1021.5 3.2
23/02:30pm 11.8 7.5 7.7 76 2.0 S 20 32 11 17 1020.8 1020.8 3.2
23/02:00pm 11.7 5.8 6.0 68 2.7 S 26 41 14 22 1020.5 1020.5 3.2
23/01:30pm 12.4 7.9 7.1 70 2.6 SW 20 32 11 17 1020.0 1020.0 3.2
23/01:00pm 12.6 7.5 7.5 71 2.5 SSW 24 37 13 20 1019.7 1019.8 3.2
23/12:30pm 12.5 8.8 8.0 74 2.2 SW 17 30 9 16 1019.5 1019.6 3.2
23/12:00pm 12.0 6.9 7.7 75 2.1 SSW 24 35 13 19 1019.3 1019.4 2.8
23/11:30am 11.4 7.9 8.6 83 1.4 SW 17 41 9 22 1019.3 1019.4 2.8
23/11:00am 10.6 5.5 7.7 82 1.4 SSW 24 43 13 23 1019.0 1019.1 2.6
23/10:30am 10.5 8.0 8.4 87 1.0 SW 11 17 6 9 1018.5 1018.6 2.4
23/10:00am 8.7 5.5 8.6 99 0.0 SW 15 22 8 12 1018.3 1018.4 2.4
23/09:30am 9.5 6.9 7.8 89 0.8 WSW 11 28 6 15 1017.5 1017.5 0.6
23/09:00am 9.0 6.7 8.9 99 0.0 SW 11 15 6 8 1017.4 1017.4 22.4
23/08:30am 8.2 5.7 8.2 100 0.0 SSW 11 22 6 12 1017.1 1017.1 22.0
23/08:00am 8.0 5.1 8.0 100 0.0 SW 13 24 7 13 1016.8 1016.8 21.2
23/07:30am 8.5 5.7 8.5 100 0.0 NW 13 19 7 10 1016.0 1016.0 18.8
23/07:00am 8.4 6.3 8.4 100 0.0 NW 9 15 5 8 1015.6 1015.6 18.2
23/06:30am 8.2 6.1 8.1 99 0.0 NW 9 13 5 7 1014.9 1014.9 16.6
23/06:00am 8.7 5.9 8.6 99 0.0 NW 13 15 7 8 1014.9 1014.9 15.2
23/05:30am 8.5 4.5 8.4 99 0.0 WNW 19 39 10 21 1014.6 1014.6 15.0
23/05:00am 9.1 6.4 9.0 99 0.0 WNW 13 15 7 8 1013.9 1013.9 13.8
23/04:30am 9.1 6.4 9.1 100 0.0 W 13 20 7 11 1013.7 1013.7 13.8
23/04:00am 9.4 7.2 9.4 100 0.0 W 11 19 6 10 1013.6 1013.6 13.6
23/03:30am 9.3 7.1 9.3 100 0.0 NNW 11 15 6 8 1013.1 1013.1 12.8
23/03:00am 9.8 9.0 9.8 100 0.0 NW 4 6 2 3 1013.1 1013.1 12.8
23/02:30am 10.0 8.3 10.0 100 0.0 NW 9 15 5 8 1013.1 1013.1 12.6
23/02:00am 10.1 8.5 10.1 100 0.0 WNW 9 11 5 6 1013.7 1013.7 11.4
23/01:30am 10.1 8.8 10.1 100 0.0 NW 7 11 4 6 1013.5 1013.5 10.8
23/01:00am 10.3 9.3 10.3 100 0.0 W 6 9 3 5 1013.3 1013.3 10.6
23/12:30am 10.3 8.3 10.3 100 0.0 WSW 11 19 6 10 1013.3 1013.3 10.6
23/12:00am 10.6 9.1 10.6 100 0.0 WSW 9 15 5 8 1012.8 1012.8 9.8
 
Date/Time
WST
Temp
°C
App
Temp
°C
Dew
Point
°C
Rel
Hum
%
Delta-T
°C
Wind Press
QNH
hPa
Press
MSL
hPa
Rain since
9am
mm
Dir  Spd
km/h
Gust
km/h
Spd
kts
Gust
kts
22/11:30pm 11.0 10.2 11.0 100 0.0 WSW 6 9 3 5 1013.2 1013.2 8.8
22/11:00pm 11.1 10.7 11.1 100 0.0 WSW 4 9 2 5 1012.9 1012.9 8.4
22/10:30pm 11.3 10.0 11.3 100 0.0 WSW 9 13 5 7 1013.0 1013.0 8.4
22/10:00pm 11.4 9.8 11.4 100 0.0 SW 11 20 6 11 1013.1 1013.1 8.0
22/09:30pm 11.4 9.0 11.4 100 0.0 SW 15 24 8 13 1013.2 1013.2 7.6
22/09:00pm 12.0 9.8 12.0 100 0.0 SSW 15 26 8 14 1012.8 1012.8 7.2
22/08:30pm 12.8 11.2 12.8 100 0.0 WSW 13 24 7 13 1012.5 1012.5 6.0
22/08:00pm 12.7 11.5 12.7 100 0.0 WNW 11 20 6 11 1012.2 1012.2 5.8
22/07:30pm 12.7 10.3 12.7 100 0.0 W 17 33 9 18 1012.2 1012.2 5.4
22/07:00pm 12.9 10.0 12.9 100 0.0 W 20 35 11 19 1011.9 1011.9 4.0
22/06:30pm 14.0 12.8 14.0 100 0.0 W 13 26 7 14 1011.4 1011.4 2.8
22/06:00pm 14.1 12.2 14.1 100 0.0 W 17 28 9 15 1010.8 1010.8 2.6
22/05:30pm 15.1 12.4 14.6 97 0.3 WNW 22 39 12 21 1010.2 1010.2 1.2
22/05:00pm 16.1 13.8 14.1 88 1.1 NW 19 24 10 13 1009.6 1009.6 0.8
22/04:30pm 16.5 12.5 13.0 80 2.0 NW 26 44 14 24 1009.3 1009.3 0.6
22/04:00pm 20.8 14.4 9.4 48 6.1 NW 33 57 18 31 1008.9 1008.9 0.0
22/03:30pm 21.2 14.6 8.5 44 6.7 NW 33 52 18 28 1009.1 1009.1 0.0
22/03:00pm 22.4 14.6 6.6 36 8.1 NW 37 61 20 33 1009.1 1009.1 0.0
22/02:30pm 22.7 14.0 4.2 30 9.1 NW 39 59 21 32 1009.2 1009.2 0.0
22/02:00pm 22.8 15.5 2.3 26 9.7 NW 30 50 16 27 1009.2 1009.2 0.0
22/01:30pm 22.9 15.3 2.9 27 9.6 NW 32 57 17 31 1009.2 1009.2 0.0
22/01:19pm 22.6 15.1 1.0 24 10.0 NW 30 59 16 32 1009.3 1009.3 0.0
22/01:00pm 22.6 16.1 0.4 23 10.1 NNW 24 39 13 21 1009.7 1009.7 0.0
22/12:30pm 22.1 15.3 0.6 24 9.8 NNW 26 46 14 25 1010.2 1010.2 0.0
22/12:02pm 21.8 14.6 0.9 25 9.6 NNW 28 56 15 30 1010.9 1010.9 0.0
22/12:00pm 21.8 14.4 -0.8 22 10.0 NNW 28 56 15 30 1010.6 1010.6 0.0
22/11:30am 21.4 15.4 1.1 26 9.3 NNW 22 41 12 22 1011.5 1011.5 0.0
22/11:00am 20.5 15.4 0.9 27 8.9 N 17 33 9 18 1011.4 1011.4 0.0
22/10:30am 19.6 15.2 2.9 33 7.8 N 15 32 8 17 1012.6 1012.6 0.0
22/10:00am 18.3 13.5 2.6 35 7.2 N 17 26 9 14 1013.2 1013.2 0.0
22/09:30am 17.0 11.8 2.6 38 6.6 N 19 33 10 18 1013.9 1013.9 0.0
22/09:00am 16.2 10.7 1.9 38 6.4 NNW 20 35 11 19 1014.2 1014.2 0.0
22/08:30am 15.6 10.1 0.6 36 6.5 NNW 19 43 10 23 1014.5 1014.5 0.0
22/08:00am 14.5 9.0 0.7 39 5.9 N 19 35 10 19 1014.6 1014.6 0.0
22/07:30am 13.9 8.8 0.5 40 5.7 N 17 32 9 17 1014.6 1014.6 0.0
22/07:00am 13.9 8.7 0.2 39 5.8 N 17 30 9 16 1014.3 1014.3 0.0
22/06:30am 14.0 8.8 0.3 39 5.8 N 17 30 9 16 1014.4 1014.4 0.0
22/06:00am 14.0 8.4 1.0 41 5.6 NNE 20 30 11 16 1014.5 1014.5 0.0
22/05:30am 14.0 8.4 1.3 42 5.5 NNE 20 32 11 17 1014.6 1014.6 0.0
22/05:00am 14.4 8.9 1.7 42 5.5 NNE 20 37 11 20 1014.9 1014.9 0.0
22/04:30am 14.0 8.6 2.3 45 5.2 NNE 20 33 11 18 1015.2 1015.2 0.0
22/04:00am 14.2 8.4 2.5 45 5.2 NNE 22 39 12 21 1015.4 1015.4 0.0
22/03:30am 13.7 9.0 3.2 49 4.7 NNE 17 28 9 15 1015.9 1015.9 0.0
22/03:00am 13.8 9.5 3.3 49 4.7 N 15 24 8 13 1016.3 1016.3 0.0
22/02:30am 13.4 9.6 3.8 52 4.4 N 13 22 7 12 1016.8 1016.8 0.0
22/02:00am 13.8 10.0 3.9 51 4.5 NNE 13 26 7 14 1017.2 1017.2 0.0
22/01:30am 13.5 10.2 4.4 54 4.2 NNE 11 20 6 11 1017.7 1017.7 0.0
22/01:00am 13.9 10.2 4.5 53 4.3 NNE 13 22 7 12 1018.2 1018.2 0.0
22/12:30am 14.1 10.9 4.9 54 4.3 N 11 24 6 13 1018.5 1018.6 0.0
22/12:00am 13.7 10.9 5.1 56 4.0 N 9 13 5 7 1019.0 1019.1 0.0
 
Date/Time
WST
Temp
°C
App
Temp
°C
Dew
Point
°C
Rel
Hum
%
Delta-T
°C
Wind Press
QNH
hPa
Press
MSL
hPa
Rain since
9am
mm
Dir  Spd
km/h
Gust
km/h
Spd
kts
Gust
kts
21/11:30pm 14.2 11.4 5.3 55 4.2 N 9 17 5 9 1019.3 1019.4 0.0
21/11:00pm 14.2 11.4 5.3 55 4.2 N 9 15 5 8 1019.9 1019.9 0.0
21/10:30pm 15.1 12.0 5.6 53 4.5 N 11 20 6 11 1020.5 1020.5 0.0
21/10:00pm 14.8 12.1 5.6 54 4.4 NNE 9 15 5 8 1020.8 1020.8 0.0
21/09:30pm 15.1 12.0 5.6 53 4.5 NNE 11 19 6 10 1021.1 1021.1 0.0
21/09:00pm 15.1 12.3 5.3 52 4.6 NNE 9 15 5 8 1021.3 1021.3 0.0
21/08:30pm 16.2 13.0 5.2 48 5.3 NNE 11 19 6 10 1021.2 1021.2 0.0
21/08:00pm 16.0 13.2 5.3 49 5.1 N 9 15 5 8 1021.3 1021.3 0.0
21/07:30pm 16.4 13.7 5.4 48 5.3 NNE 9 15 5 8 1021.2 1021.2 0.0
21/07:00pm 17.3 14.1 5.3 45 5.8 NNE 11 17 6 9 1021.1 1021.1 0.0
21/06:30pm 17.8 15.2 6.0 46 5.8 NNE 9 11 5 6 1021.1 1021.1 0.0
21/06:00pm 18.6 15.9 5.8 43 6.3 NNE 9 17 5 9 1021.0 1021.0 0.0
21/05:30pm 19.0 16.5 6.5 44 6.3 NNE 9 13 5 7 1021.0 1021.0 0.0
21/05:00pm 20.4 18.2 6.4 40 7.0 N 7 13 4 7 1020.9 1020.9 0.0
21/04:30pm 21.4 18.7 5.7 36 7.9 N 9 15 5 8 1021.1 1021.1 0.0
21/04:00pm 21.9 19.5 7.0 38 7.6 N 9 15 5 8 1021.2 1021.2 0.0
21/03:30pm 22.0 18.6 5.8 35 8.2 NNW 13 24 7 13 1021.4 1021.4 0.0
21/03:00pm 22.2 19.5 7.2 38 7.7 N 11 19 6 10 1021.7 1021.7 0.0
21/02:30pm 21.9 16.8 3.1 29 9.0 NNW 19 32 10 17 1021.9 1021.9 0.0
21/02:00pm 22.3 19.1 6.9 37 7.9 NNW 13 22 7 12 1022.3 1022.3 0.0
21/01:30pm 21.8 17.8 4.8 33 8.4 N 15 24 8 13 1022.5 1022.5 0.0
21/01:00pm 21.7 18.5 5.2 34 8.2 N 11 20 6 11 1023.0 1023.0 0.0
21/12:30pm 21.2 17.5 6.3 38 7.5 NNW 15 26 8 14 1023.6 1023.6 0.0
21/12:00pm 20.3 16.9 5.9 39 7.2 NNW 13 22 7 12 1024.2 1024.2 0.0
21/11:30am 19.8 16.1 6.5 42 6.7 N 15 28 8 15 1024.9 1024.9 0.0
21/11:00am 19.2 15.7 5.3 40 6.8 N 13 28 7 15 1025.4 1025.4 0.0
21/10:30am 18.5 13.9 5.4 42 6.4 N 19 33 10 18 1025.8 1025.8 0.0
21/10:00am 17.8 13.8 5.1 43 6.1 N 15 28 8 15 1026.0 1026.0 0.0
21/09:30am 16.9 13.7 5.2 46 5.6 N 11 24 6 13 1026.2 1026.2 0.0
21/09:00am 15.5 12.2 6.2 54 4.5 N 13 20 7 11 1026.5 1026.5 0.2
21/08:30am 14.0 11.0 6.1 59 3.8 NNE 11 20 6 11 1026.6 1026.6 0.2
21/08:00am 13.1 10.5 6.2 63 3.3 NNE 9 20 5 11 1026.8 1026.8 0.2
21/07:30am 10.3 7.1 5.3 71 2.3 ENE 11 17 6 9 1026.8 1026.8 0.2
21/07:00am 8.9 5.7 5.3 78 1.6 ENE 11 17 6 9 1026.7 1026.7 0.2
21/06:30am 9.0 6.2 5.0 76 1.8 ENE 9 13 5 7 1026.8 1026.8 0.2

Other formats

Comma delimited format used in spreadsheet applications
http://www.bom.gov.au/fwo/IDW60801/IDW60801.95647.axf

JavaScript Object Notation format (JSON) in row-major order
http://www.bom.gov.au/fwo/IDW60801/IDW60801.95647.json

Data quality

Most of these data are generated automatically and are frequently updated. Quality checks on data are not normally performed. It is possible for incorrect values to appear. Refer to information at About Latest Weather Observations and please check the disclaimer before using these data.